TAF KBRL
KBRL 081737Z 0818/0918 33007KT P6SM SKC FM090200 13007KT P6SM SCT250 FM090800 13011KT P6SM OVC200 WS015/18040KT FM091300 15012G20KT P6SM BKN150=
METAR KBRL
WC KBRL
WS KBRL
WV KBRL